KBLV/BLV METAR and TAF weather

Enter ICAO airport designator
Station Type Date Time Source
KBLV METAR 2018/01/24 06:56 UTC NOAA

KBLV 240656Z AUTO 31007KT 10SM OVC027 01/M04 A3024 RMK AO2 SLP247 T00091045 $


Station Type Date Time Source
KBLV Decoded METAR 2018/01/24 06:56 UTC NOAA

Belleville, Scott AFB/MidAmerica Airport, IL, United States (KBLV) 38-33N 089-51W
Jan 24, 2018 - 01:56 AM EST / 2018.01.24 0656 UTC
Wind: from the NW (310 degrees) at 8 MPH (7 KT):0
Visibility: 10 mile(s):0
Sky conditions: overcast
Temperature: 33.6 F (0.9 C)
Windchill: 26 F (-3 C):1
Dew Point: 23.9 F (-4.5 C)
Relative Humidity: 67%
Pressure (altimeter): 30.24 in. Hg (1024 hPa)
ob: KBLV 240656Z AUTO 31007KT 10SM OVC027 01/M04 A3024 RMK AO2 SLP247 T00091045
cycle: 7

Station Type Date Time Source
KBLV TAF 2018/01/24 00:25 UTC NOAA

TAF KBLV 240000Z 2400/2506 29012KT 9999 OVC023 620235 QNH3016INS
BECMG 2414/2415 29010G15KT 9999 FEW022 QNH3024INS
BECMG 2423/2424 VRB06KT 9999 FEW100 QNH3028INS TX03/2420Z TN00/2409Z


Example: see airport list